createdAt,value
2023-04-20T00:00:25.705Z,5.00
2023-04-20T00:02:54.449Z,5.73
2023-04-20T00:05:24.375Z,5.53
2023-04-20T00:07:52.790Z,5.13
2023-04-20T00:10:21.232Z,5.57
2023-04-20T00:12:49.543Z,5.70
2023-04-20T00:15:17.960Z,7.13
2023-04-20T00:17:46.590Z,6.83
2023-04-20T00:20:15.438Z,5.00
2023-04-20T00:22:45.222Z,6.70
2023-04-20T00:25:13.394Z,5.27
2023-04-20T00:27:42.215Z,5.77
2023-04-20T00:30:12.202Z,5.93
2023-04-20T00:32:40.511Z,5.63
2023-04-20T00:35:09.819Z,7.73
2023-04-20T00:37:38.075Z,6.30
2023-04-20T00:40:09.730Z,7.00
2023-04-20T00:42:40.627Z,5.90
2023-04-20T00:45:10.138Z,5.37
2023-04-20T00:47:38.813Z,6.90
2023-04-20T00:50:09.024Z,6.90
2023-04-20T00:52:39.565Z,5.80
2023-04-20T00:55:10.865Z,6.70
2023-04-20T00:57:39.758Z,6.53
2023-04-20T01:00:14.416Z,7.83
2023-04-20T01:02:43.008Z,6.63
2023-04-20T01:05:11.602Z,6.40
2023-04-20T01:07:39.812Z,5.70
2023-04-20T01:10:10.820Z,7.20
2023-04-20T01:12:41.021Z,6.73
2023-04-20T01:15:09.954Z,6.60
2023-04-20T01:17:39.747Z,6.33
2023-04-20T01:20:11.757Z,6.70
2023-04-20T01:22:46.651Z,7.57
2023-04-20T01:25:15.059Z,6.90
2023-04-20T01:27:43.509Z,7.37
2023-04-20T01:30:12.537Z,7.10
2023-04-20T01:32:41.692Z,8.20
2023-04-20T01:35:10.841Z,8.40
2023-04-20T01:37:39.727Z,7.87
2023-04-20T01:40:11.141Z,6.50
2023-04-20T01:42:39.933Z,6.93
2023-04-20T01:45:09.318Z,6.60
2023-04-20T01:47:38.570Z,8.03
2023-04-20T01:50:09.260Z,8.70
2023-04-20T01:52:37.462Z,8.07
2023-04-20T01:55:08.647Z,7.27
2023-04-20T01:57:38.249Z,7.43
2023-04-20T02:00:08.631Z,6.83
2023-04-20T02:02:42.821Z,8.43
2023-04-20T02:05:11.848Z,7.27
2023-04-20T02:07:40.225Z,6.23
2023-04-20T02:10:09.249Z,7.20
2023-04-20T02:12:41.169Z,6.67
2023-04-20T02:15:10.364Z,7.40
2023-04-20T02:17:38.773Z,8.00
2023-04-20T02:20:09.255Z,7.10
2023-04-20T02:22:37.984Z,7.10
2023-04-20T02:25:07.781Z,7.17
2023-04-20T02:27:36.025Z,7.57
2023-04-20T02:30:08.788Z,7.07
2023-04-20T02:32:37.066Z,8.77
2023-04-20T02:35:05.918Z,7.80
2023-04-20T02:37:34.870Z,7.60
2023-04-20T02:40:03.111Z,7.77
2023-04-20T02:42:31.467Z,9.97
2023-04-20T02:45:01.255Z,8.07
2023-04-20T02:47:31.105Z,9.13
2023-04-20T02:49:59.546Z,8.47
2023-04-20T02:52:27.847Z,8.23
2023-04-20T02:54:58.707Z,7.87
2023-04-20T02:57:27.064Z,7.97
2023-04-20T02:59:57.017Z,8.90
2023-04-20T03:02:30.855Z,9.33
2023-04-20T03:04:59.646Z,10.13
2023-04-20T03:07:31.021Z,8.63
2023-04-20T03:09:59.385Z,8.40
2023-04-20T03:12:45.116Z,8.07
2023-04-20T03:15:32.290Z,8.93
2023-04-20T03:18:28.063Z,8.57
2023-04-20T03:20:57.027Z,10.53
2023-04-20T03:23:25.325Z,8.13
2023-04-20T03:25:54.084Z,8.03
2023-04-20T03:28:45.299Z,9.17
2023-04-20T03:31:17.452Z,8.63
2023-04-20T03:33:47.198Z,8.63
2023-04-20T03:36:15.409Z,8.90
2023-04-20T03:38:44.664Z,10.07
2023-04-20T03:41:13.337Z,8.03
2023-04-20T03:43:42.345Z,7.97
2023-04-20T03:46:11.085Z,8.50
2023-04-20T03:48:39.584Z,10.80
2023-04-20T03:51:09.185Z,9.50
2023-04-20T03:53:39.683Z,8.57
2023-04-20T03:56:09.504Z,9.67
2023-04-20T03:58:38.026Z,9.07
2023-04-20T04:01:21.207Z,10.00
2023-04-20T04:03:51.092Z,9.30
2023-04-20T04:06:21.161Z,12.00
2023-04-20T04:08:49.437Z,11.43
2023-04-20T04:11:17.993Z,10.97
2023-04-20T04:13:46.944Z,10.73
2023-04-20T04:16:15.238Z,12.70
2023-04-20T04:18:45.065Z,10.90
2023-04-20T04:21:13.519Z,11.40
2023-04-20T04:23:47.559Z,11.60
2023-04-20T04:26:28.128Z,10.83
2023-04-20T04:28:56.642Z,14.20
2023-04-20T04:31:25.317Z,12.30
2023-04-20T04:33:53.939Z,12.33
2023-04-20T04:36:30.225Z,11.50
2023-04-20T04:39:01.262Z,11.50
2023-04-20T04:41:29.735Z,10.43
2023-04-20T04:44:08.962Z,10.67
2023-04-20T04:46:37.812Z,10.10
2023-04-20T04:49:06.253Z,12.20
2023-04-20T04:51:34.687Z,10.80
2023-04-20T04:54:04.452Z,14.10
2023-04-20T04:56:32.594Z,11.37
2023-04-20T04:59:00.825Z,12.70
2023-04-20T05:01:29.069Z,11.23
2023-04-20T05:03:57.555Z,13.40
2023-04-20T05:06:25.867Z,12.33
2023-04-20T05:08:54.665Z,15.53
2023-04-20T05:11:24.217Z,13.93
2023-04-20T05:13:52.653Z,12.43
2023-04-20T05:16:20.909Z,15.17
2023-04-20T05:18:49.117Z,17.47
2023-04-20T05:21:17.637Z,15.50
2023-04-20T05:23:46.069Z,12.87
2023-04-20T05:26:14.275Z,12.73
2023-04-20T05:28:43.879Z,11.30
2023-04-20T05:31:12.122Z,12.37
2023-04-20T05:33:40.781Z,12.70
2023-04-20T05:36:10.646Z,14.83
2023-04-20T05:38:38.864Z,16.07
2023-04-20T05:41:07.511Z,14.60
2023-04-20T05:43:35.967Z,15.10
2023-04-20T05:46:06.200Z,11.87
2023-04-20T05:48:34.448Z,12.03
2023-04-20T05:51:02.778Z,14.07
2023-04-20T05:53:31.094Z,12.27
2023-04-20T05:55:59.252Z,10.87
2023-04-20T05:58:28.410Z,9.70
2023-04-20T06:00:56.863Z,9.67
2023-04-20T06:03:26.799Z,9.90
2023-04-20T06:05:55.233Z,9.67
2023-04-20T06:08:23.425Z,10.10
2023-04-20T06:10:55.466Z,9.37
2023-04-20T06:13:23.726Z,10.23
2023-04-20T06:15:52.779Z,9.83
2023-04-20T06:18:21.480Z,8.60
2023-04-20T06:20:51.336Z,11.00
2023-04-20T06:23:19.493Z,9.90
2023-04-20T06:25:47.805Z,11.85
2023-04-20T06:28:16.163Z,15.33
2023-04-20T06:30:44.434Z,15.50
2023-04-20T06:33:17.024Z,19.67
2023-04-20T06:35:45.430Z,21.63
2023-04-20T06:38:15.050Z,20.97
2023-04-20T06:40:43.322Z,21.13
2023-04-20T06:43:12.016Z,17.93
2023-04-20T06:45:40.419Z,15.67
2023-04-20T06:48:20.217Z,15.80
2023-04-20T06:50:56.157Z,17.80
2023-04-20T06:53:26.266Z,17.97
2023-04-20T06:55:55.503Z,11.87
2023-04-20T06:58:23.826Z,9.50
2023-04-20T07:00:52.519Z,8.77
2023-04-20T07:03:21.108Z,8.47
2023-04-20T07:05:49.715Z,8.37
2023-04-20T07:08:17.855Z,11.87
2023-04-20T07:10:47.648Z,12.37
2023-04-20T07:13:16.224Z,11.23
2023-04-20T07:15:46.136Z,10.70
2023-04-20T07:18:14.410Z,10.20
2023-04-20T07:20:42.930Z,12.77
2023-04-20T07:23:11.249Z,12.77
2023-04-20T07:25:39.411Z,15.73
2023-04-20T07:28:09.067Z,13.73
2023-04-20T07:30:37.306Z,14.30
2023-04-20T07:33:05.782Z,11.37
2023-04-20T07:35:33.970Z,13.47
2023-04-20T07:38:02.102Z,8.97
2023-04-20T07:40:30.604Z,8.90
2023-04-20T07:42:58.871Z,8.77
2023-04-20T07:45:28.606Z,9.77
2023-04-20T07:47:57.445Z,8.87
2023-04-20T07:50:26.076Z,11.17
2023-04-20T07:52:54.321Z,11.53
2023-04-20T07:55:22.802Z,10.13
2023-04-20T07:57:51.406Z,10.07
2023-04-20T08:00:20.742Z,10.13
2023-04-20T08:02:50.597Z,8.70
2023-04-20T08:05:19.917Z,8.53
2023-04-20T08:07:48.561Z,8.30
2023-04-20T08:10:16.871Z,7.77
2023-04-20T08:12:45.336Z,8.37
2023-04-20T08:15:14.476Z,7.90
2023-04-20T08:17:43.229Z,9.50
2023-04-20T08:20:13.146Z,9.20
2023-04-20T08:22:41.411Z,8.93
2023-04-20T08:25:10.066Z,7.97
2023-04-20T08:27:38.646Z,8.67
2023-04-20T08:30:08.736Z,8.00
2023-04-20T08:32:37.261Z,9.13
2023-04-20T08:35:05.898Z,8.70
2023-04-20T08:37:37.611Z,8.37
2023-04-20T08:40:06.846Z,7.60
2023-04-20T08:42:35.085Z,7.80
2023-04-20T08:45:03.683Z,9.00
2023-04-20T08:47:35.151Z,9.33
2023-04-20T08:50:05.723Z,9.00
2023-04-20T08:52:38.653Z,9.07
2023-04-20T08:55:08.527Z,10.23
2023-04-20T08:57:36.754Z,10.60
2023-04-20T09:00:07.913Z,8.83
2023-04-20T09:02:36.449Z,8.57
2023-04-20T09:05:05.940Z,14.23
2023-04-20T09:07:36.259Z,10.83
2023-04-20T09:10:04.690Z,10.13
2023-04-20T09:12:42.391Z,10.30
2023-04-20T09:15:11.803Z,9.97
2023-04-20T09:17:41.561Z,9.33
2023-04-20T09:20:11.611Z,8.63
2023-04-20T09:22:43.305Z,9.23
2023-04-20T09:25:15.962Z,8.63
2023-04-20T09:27:44.294Z,8.50
2023-04-20T09:30:13.143Z,12.43
2023-04-20T09:32:41.861Z,7.50
2023-04-20T09:35:10.942Z,8.43
2023-04-20T09:37:49.848Z,8.57
2023-04-20T09:40:21.933Z,9.30
2023-04-20T09:42:51.241Z,8.57
2023-04-20T09:45:20.241Z,7.63
2023-04-20T09:47:49.937Z,7.90
2023-04-20T09:50:26.616Z,7.50
2023-04-20T09:52:59.737Z,8.27
2023-04-20T09:55:28.426Z,9.23
2023-04-20T09:57:59.122Z,7.57
2023-04-20T10:00:27.595Z,7.93
2023-04-20T10:02:56.196Z,7.23
2023-04-20T10:05:35.134Z,10.67
2023-04-20T10:08:05.052Z,9.20
2023-04-20T10:10:44.807Z,11.30
2023-04-20T10:13:13.074Z,8.03
2023-04-20T10:15:42.883Z,8.33
2023-04-20T10:18:19.142Z,8.13
2023-04-20T10:20:47.921Z,8.40
2023-04-20T10:23:19.820Z,16.43
2023-04-20T10:25:58.667Z,9.80
2023-04-20T10:28:27.266Z,17.23
2023-04-20T10:30:56.288Z,8.57
2023-04-20T10:33:24.966Z,7.33
2023-04-20T10:35:55.369Z,7.97
2023-04-20T10:38:32.281Z,13.47
2023-04-20T10:41:08.180Z,11.10
2023-04-20T10:43:39.253Z,11.27
2023-04-20T10:46:18.726Z,13.17
2023-04-20T10:48:54.529Z,7.43
2023-04-20T10:51:23.334Z,7.57
2023-04-20T10:54:05.137Z,7.73
2023-04-20T10:56:41.600Z,8.93
2023-04-20T10:59:11.403Z,7.88
2023-04-20T11:01:40.979Z,8.33
2023-04-20T11:04:10.564Z,8.40
2023-04-20T11:06:39.519Z,7.93
2023-04-20T11:09:20.315Z,7.73
2023-04-20T11:12:02.303Z,9.53
2023-04-20T11:14:31.042Z,8.93
2023-04-20T11:17:01.886Z,7.33
2023-04-20T11:19:32.066Z,8.20
2023-04-20T11:22:01.002Z,8.47
2023-04-20T11:24:32.828Z,7.77
2023-04-20T11:27:03.173Z,10.03
2023-04-20T11:29:33.536Z,8.93
2023-04-20T11:32:05.195Z,5.80
2023-04-20T11:34:34.178Z,6.07
2023-04-20T11:37:05.669Z,6.10
2023-04-20T11:39:37.460Z,6.30
2023-04-20T11:42:06.991Z,6.37
2023-04-20T11:44:36.784Z,7.00
2023-04-20T11:47:06.062Z,6.17
2023-04-20T11:49:34.492Z,4.17
2023-04-20T11:52:03.406Z,3.80
2023-04-20T11:54:34.226Z,3.45
2023-04-20T11:57:04.644Z,3.72
2023-04-20T11:59:33.245Z,3.30
2023-04-20T12:02:04.273Z,3.45
2023-04-20T12:04:34.458Z,4.10
2023-04-20T12:07:05.816Z,4.53
2023-04-20T12:09:37.429Z,4.47
2023-04-20T12:12:08.753Z,4.82
2023-04-20T12:14:37.300Z,3.60
2023-04-20T12:17:06.087Z,3.60
2023-04-20T12:19:34.395Z,3.40
2023-04-20T12:22:02.763Z,3.15
2023-04-20T12:24:31.189Z,3.75
2023-04-20T12:26:59.611Z,3.13
2023-04-20T12:29:31.248Z,3.53
2023-04-20T12:32:00.119Z,3.30
2023-04-20T12:34:30.707Z,3.53
2023-04-20T12:36:59.365Z,4.30
2023-04-20T12:39:27.785Z,3.00
2023-04-20T12:41:57.058Z,3.10
2023-04-20T12:44:25.461Z,3.42
2023-04-20T12:46:56.648Z,5.38
2023-04-20T12:49:25.010Z,3.67
2023-04-20T12:51:53.666Z,4.38
2023-04-20T12:54:22.709Z,4.13
2023-04-20T12:56:51.812Z,3.00
2023-04-20T12:59:20.815Z,3.72
2023-04-20T13:01:49.409Z,4.20
2023-04-20T13:04:19.567Z,4.35
2023-04-20T13:06:48.100Z,3.78
2023-04-20T13:09:16.490Z,3.20
2023-04-20T13:11:44.729Z,3.67
2023-04-20T13:14:12.979Z,3.65
2023-04-20T13:16:41.455Z,4.38
2023-04-20T13:19:09.879Z,5.53
2023-04-20T13:21:39.460Z,8.55
2023-04-20T13:24:08.216Z,10.50
2023-04-20T13:26:36.719Z,12.70
2023-04-20T13:29:05.080Z,4.20
2023-04-20T13:31:35.095Z,4.15
2023-04-20T13:34:03.385Z,2.80
2023-04-20T13:36:32.830Z,3.53
2023-04-20T13:39:03.681Z,3.60
2023-04-20T13:41:32.125Z,3.65
2023-04-20T13:44:01.965Z,3.58
2023-04-20T13:46:31.217Z,3.72
2023-04-20T13:48:59.677Z,3.50
2023-04-20T13:51:28.149Z,3.05
2023-04-20T13:53:56.453Z,3.08
2023-04-20T13:56:26.138Z,3.50
2023-04-20T13:58:54.532Z,2.40
2023-04-20T14:01:23.099Z,2.40
2023-04-20T14:03:52.344Z,1.90
2023-04-20T14:06:21.058Z,1.70
2023-04-20T14:08:49.508Z,1.73
2023-04-20T14:11:18.210Z,1.50
2023-04-20T14:13:48.196Z,1.63
2023-04-20T14:16:16.887Z,1.60
2023-04-20T14:18:46.097Z,1.88
2023-04-20T14:21:14.785Z,2.75
2023-04-20T14:23:43.033Z,2.30
2023-04-20T14:26:11.356Z,1.60
2023-04-20T14:28:39.807Z,1.90
2023-04-20T14:31:09.440Z,2.10
2023-04-20T14:33:38.382Z,2.45
2023-04-20T14:36:07.388Z,2.30
2023-04-20T14:38:35.840Z,2.20
2023-04-20T14:41:04.510Z,1.80
2023-04-20T14:43:34.527Z,2.08
2023-04-20T14:46:02.806Z,1.95
2023-04-20T14:48:32.568Z,1.60
2023-04-20T14:51:01.410Z,1.70
2023-04-20T14:53:31.409Z,1.25
2023-04-20T14:56:00.378Z,1.20
2023-04-20T14:58:28.705Z,2.05
2023-04-20T15:00:57.412Z,2.85
2023-04-20T15:03:25.888Z,2.90
2023-04-20T15:06:01.952Z,1.80
2023-04-20T15:08:30.400Z,4.32
2023-04-20T15:10:58.708Z,2.42
2023-04-20T15:13:27.352Z,1.75
2023-04-20T15:15:55.822Z,2.17
2023-04-20T15:18:24.094Z,4.43
2023-04-20T15:20:52.707Z,7.75
2023-04-20T15:23:22.458Z,4.85
2023-04-20T15:25:50.857Z,5.30
2023-04-20T15:28:19.667Z,3.50
2023-04-20T15:30:48.455Z,6.47
2023-04-20T15:33:17.420Z,3.07
2023-04-20T15:35:45.929Z,2.30
2023-04-20T15:38:14.308Z,2.50
2023-04-20T15:40:43.858Z,1.90
2023-04-20T15:43:13.167Z,2.40
2023-04-20T15:45:43.511Z,1.80
2023-04-20T15:48:13.216Z,8.63
2023-04-20T15:50:41.646Z,2.90
2023-04-20T15:53:10.013Z,3.13
2023-04-20T15:55:39.769Z,5.20
2023-04-20T15:58:10.619Z,6.90
2023-04-20T16:00:40.384Z,2.07
2023-04-20T16:03:08.976Z,1.80
2023-04-20T16:05:37.487Z,2.23
2023-04-20T16:08:06.985Z,1.93
2023-04-20T16:10:35.488Z,2.97
2023-04-20T16:13:04.684Z,2.70
2023-04-20T16:15:37.542Z,2.90
2023-04-20T16:18:06.357Z,2.00
2023-04-20T16:20:35.120Z,1.97
2023-04-20T16:23:03.472Z,20.87
2023-04-20T16:25:34.189Z,2.70
2023-04-20T16:28:02.496Z,2.37
2023-04-20T16:30:31.156Z,6.53
2023-04-20T16:33:00.955Z,2.67
2023-04-20T16:35:29.458Z,13.23
2023-04-20T16:37:57.838Z,5.90
2023-04-20T16:40:28.943Z,2.83
2023-04-20T16:42:57.645Z,2.93
2023-04-20T16:45:27.838Z,1.97
2023-04-20T16:47:56.351Z,2.87
2023-04-20T16:50:26.251Z,1.67
2023-04-20T16:52:54.847Z,1.73
2023-04-20T16:55:23.951Z,2.10
2023-04-20T16:57:52.210Z,2.20
2023-04-20T17:00:21.920Z,2.10
2023-04-20T17:02:51.994Z,2.00
2023-04-20T17:05:20.506Z,2.10
2023-04-20T17:07:50.438Z,2.50
2023-04-20T17:10:18.806Z,2.30
2023-04-20T17:12:47.229Z,2.60
2023-04-20T17:15:16.032Z,2.20
2023-04-20T17:17:46.012Z,2.40
2023-04-20T17:20:14.570Z,2.10
2023-04-20T17:22:43.112Z,2.53
2023-04-20T17:25:12.798Z,2.37
2023-04-20T17:27:41.124Z,2.40
2023-04-20T17:30:11.002Z,3.30
2023-04-20T17:32:39.409Z,3.70
2023-04-20T17:35:08.365Z,6.00
2023-04-20T17:37:36.784Z,3.70
2023-04-20T17:40:06.453Z,2.90
2023-04-20T17:42:36.163Z,2.80
2023-04-20T17:45:04.566Z,3.23
2023-04-20T17:47:33.235Z,2.80
2023-04-20T17:50:01.558Z,2.60
2023-04-20T17:52:29.839Z,2.63
2023-04-20T17:55:00.336Z,3.07
2023-04-20T17:57:29.261Z,5.20
2023-04-20T17:59:58.930Z,3.73
2023-04-20T18:02:28.076Z,3.57
2023-04-20T18:04:59.758Z,2.90
2023-04-20T18:07:28.431Z,2.90
2023-04-20T18:09:56.828Z,4.77
2023-04-20T18:12:27.323Z,5.73
2023-04-20T18:14:55.607Z,4.60
2023-04-20T18:17:25.308Z,4.23
2023-04-20T18:19:53.676Z,4.67
2023-04-20T18:22:22.044Z,3.60
2023-04-20T18:24:50.443Z,3.13
2023-04-20T18:27:18.702Z,2.87
2023-04-20T18:29:47.192Z,3.57
2023-04-20T18:32:17.927Z,4.63
2023-04-20T18:34:48.296Z,8.83
2023-04-20T18:37:17.223Z,9.63
2023-04-20T18:39:45.592Z,14.40
2023-04-20T18:42:14.280Z,12.37
2023-04-20T18:44:42.599Z,11.13
2023-04-20T18:47:11.913Z,12.73
2023-04-20T18:49:40.471Z,11.10
2023-04-20T18:52:10.199Z,13.67
2023-04-20T18:54:38.608Z,14.63
2023-04-20T18:57:07.333Z,11.57
2023-04-20T18:59:35.698Z,8.50
2023-04-20T19:02:03.960Z,9.60
2023-04-20T19:04:36.323Z,8.77
2023-04-20T19:07:04.682Z,7.97
2023-04-20T19:09:34.289Z,6.13
2023-04-20T19:12:02.528Z,5.50
2023-04-20T19:14:30.948Z,5.20
2023-04-20T19:16:59.360Z,5.20
2023-04-20T19:19:27.693Z,4.80
2023-04-20T19:21:57.445Z,4.20
2023-04-20T19:24:25.822Z,4.53
2023-04-20T19:26:55.569Z,4.37
2023-04-20T19:29:24.116Z,5.37
2023-04-20T19:31:53.011Z,4.97
2023-04-20T19:34:22.000Z,5.20
2023-04-20T19:36:50.319Z,4.80
2023-04-20T19:39:18.612Z,4.70
2023-04-20T19:41:46.958Z,4.20
2023-04-20T19:44:16.895Z,4.60
2023-04-20T19:46:45.537Z,4.73
2023-04-20T19:49:13.888Z,4.20
2023-04-20T19:51:42.278Z,4.50
2023-04-20T19:54:11.936Z,7.30
2023-04-20T19:56:40.538Z,8.00
2023-04-20T19:59:08.954Z,8.33
2023-04-20T20:01:39.117Z,9.00
2023-04-20T20:04:08.200Z,8.23
2023-04-20T20:06:37.360Z,7.40
2023-04-20T20:09:06.627Z,6.43
2023-04-20T20:11:35.252Z,6.53
2023-04-20T20:14:03.815Z,10.37
2023-04-20T20:16:32.354Z,12.13
2023-04-20T20:19:02.192Z,10.13
2023-04-20T20:21:30.494Z,9.90
2023-04-20T20:23:58.878Z,18.70
2023-04-20T20:26:27.373Z,20.37
2023-04-20T20:28:55.784Z,27.50
2023-04-20T20:31:24.141Z,25.93
2023-04-20T20:33:52.741Z,36.73
2023-04-20T20:36:22.694Z,38.13
2023-04-20T20:38:51.379Z,40.33
2023-04-20T20:41:21.484Z,46.87
2023-04-20T20:43:51.761Z,58.10
2023-04-20T20:46:20.255Z,42.97
2023-04-20T20:48:48.534Z,11.27
2023-04-20T20:51:17.200Z,6.63
2023-04-20T20:53:46.795Z,5.17
2023-04-20T20:56:15.033Z,4.60
2023-04-20T20:58:43.332Z,4.60
2023-04-20T21:01:12.119Z,4.63
2023-04-20T21:03:40.524Z,4.73
2023-04-20T21:06:09.214Z,5.27
2023-04-20T21:08:37.432Z,5.70
2023-04-20T21:11:08.694Z,4.87
2023-04-20T21:13:36.840Z,6.00
2023-04-20T21:16:05.233Z,4.90
2023-04-20T21:18:33.960Z,5.40
2023-04-20T21:21:02.439Z,6.10
2023-04-20T21:23:31.047Z,5.60
2023-04-20T21:25:59.348Z,4.90
2023-04-20T21:28:29.330Z,5.53
2023-04-20T21:30:57.588Z,5.20
2023-04-20T21:33:25.832Z,5.20
2023-04-20T21:35:54.490Z,5.50
2023-04-20T21:38:23.175Z,5.33
2023-04-20T21:40:51.597Z,6.17
2023-04-20T21:43:19.787Z,6.40
2023-04-20T21:45:50.804Z,6.43
2023-04-20T21:48:19.205Z,6.30
2023-04-20T21:50:47.486Z,6.90
2023-04-20T21:53:15.658Z,7.90
2023-04-20T21:55:43.806Z,8.07
2023-04-20T21:58:12.077Z,8.90
2023-04-20T22:00:40.274Z,9.50
2023-04-20T22:03:09.962Z,8.70
2023-04-20T22:05:38.199Z,8.40
2023-04-20T22:08:07.762Z,7.80
2023-04-20T22:10:36.187Z,8.33
2023-04-20T22:13:04.361Z,8.70
2023-04-20T22:15:32.556Z,10.00
2023-04-20T22:18:01.234Z,8.97
2023-04-20T22:20:31.708Z,9.43
2023-04-20T22:22:59.874Z,9.77
2023-04-20T22:25:28.006Z,9.27
2023-04-20T22:27:56.233Z,11.30
2023-04-20T22:30:24.555Z,22.47
2023-04-20T22:32:52.693Z,23.30
2023-04-20T22:35:21.035Z,15.17
2023-04-20T22:37:50.567Z,16.30
2023-04-20T22:40:18.778Z,12.47
2023-04-20T22:42:47.362Z,12.60
2023-04-20T22:45:20.160Z,13.07
2023-04-20T22:47:48.742Z,12.90
2023-04-20T22:50:17.458Z,12.27
2023-04-20T22:52:46.171Z,12.30
2023-04-20T22:55:15.892Z,12.77
2023-04-20T22:57:44.060Z,13.90
2023-04-20T23:00:13.936Z,13.87
2023-04-20T23:02:42.587Z,15.00
2023-04-20T23:05:11.260Z,14.30
2023-04-20T23:07:40.191Z,18.47
2023-04-20T23:10:11.031Z,17.53
2023-04-20T23:12:40.667Z,19.30
2023-04-20T23:15:10.004Z,18.63
2023-04-20T23:17:38.350Z,16.80
2023-04-20T23:20:10.707Z,16.57
2023-04-20T23:22:38.876Z,17.07
2023-04-20T23:25:08.042Z,17.90
2023-04-20T23:27:36.346Z,16.33
2023-04-20T23:30:07.599Z,16.90
2023-04-20T23:32:37.122Z,13.40
2023-04-20T23:35:06.531Z,14.73
2023-04-20T23:37:34.786Z,14.27
2023-04-20T23:40:06.723Z,14.50
2023-04-20T23:42:37.437Z,13.37
2023-04-20T23:45:09.333Z,13.67
2023-04-20T23:47:37.616Z,15.93
2023-04-20T23:50:07.027Z,16.57
2023-04-20T23:52:35.806Z,19.40
2023-04-20T23:55:04.226Z,15.23
2023-04-20T23:57:32.467Z,14.07
